Ionia, Missouri
Current Conditions -  °F | °C
As of 11:53 PM on Thursday 18 Dec 2014 (Local Time) from KDMO Reporting Station
Moderate Fog Moderate Fog  
Wind Chill: 33°   Ceiling: 200
Heat Index: 33°   Visibility: 0.5mi
Dew Point: 32°   Wind: 3mph
Humidity: 96%   Direction: 90°E
Pressure: 30.27"   Gusts: NA
Location:  38.5°N, 93.32°W
Report Text: KDMO 190553Z AUTO 09003KT 1/2SM FG VV002 01/00 A3027 RMK AO2 SLP258 T00060000 10011 20006 400111006 50004
Loading
Personal Weather Stations






























Interactive Weather Map New forecast layout! Learn more

10-Day Weather Forecast

Advertisements
Track Severe Weather on mobile